Time;durP1;ratioP1;P1;durP2;ratioP2;P2;SDS_P1;SDS_P2;PMS_P1;PMS_P2;Temp;Humidity;BMP_temperature;BMP_pressure;BME280_temperature;BME280_humidity;BME280_pressure;Samples;Min_cycle;Max_cycle;Signal;HPM_P1;HPM_P2
2022/01/13 00:01:34;;;;;;;;;23.25;23.00;15.60;99.90;;;;;;5012563;28;11489;-58
2022/01/13 00:04:07;;;;;;;;;24.75;24.75;15.60;99.90;;;;;;5013206;28;11498;-58
2022/01/13 00:06:40;;;;;;;;;22.25;22.25;15.60;99.90;;;;;;5015069;28;11503;-57
2022/01/13 00:09:10;;;;;;;;;26.25;23.25;15.60;99.90;;;;;;5012260;28;14075;-58
2022/01/13 00:11:46;;;;;;;;;27.75;27.75;15.60;99.90;;;;;;4997899;28;11481;-57
2022/01/13 00:22:20;;;;;;;;;27.75;27.75;15.60;99.90;;;;;;5011178;28;11494;-58
2022/01/13 00:24:54;;;;;;;;;30.75;30.00;15.60;99.90;;;;;;5015415;28;11514;-57
2022/01/13 00:27:28;;;;;;;;;31.50;30.50;15.60;99.90;;;;;;5010130;28;11511;-57
2022/01/13 00:30:02;;;;;;;;;29.00;29.00;15.60;99.90;;;;;;5010400;28;12116;-57
2022/01/13 00:32:34;;;;;;;;;24.25;24.25;15.60;99.90;;;;;;5011453;28;11528;-59
2022/01/13 00:35:05;;;;;;;;;23.50;22.00;15.60;99.90;;;;;;4994174;28;11471;-58
2022/01/13 00:37:37;;;;;;;;;31.75;30.25;15.60;99.90;;;;;;5007433;28;12171;-59
2022/01/13 00:40:12;;;;;;;;;32.00;31.00;15.60;99.90;;;;;;5013517;28;11362;-57
2022/01/13 00:42:46;;;;;;;;;29.00;27.75;15.60;99.90;;;;;;5015067;28;12247;-58
2022/01/13 00:45:17;;;;;;;;;30.00;29.25;15.60;99.90;;;;;;4994979;28;11544;-58
2022/01/13 00:47:48;;;;;;;;;23.75;23.75;15.60;99.90;;;;;;4997950;28;11522;-59
2022/01/13 00:50:18;;;;;;;;;24.25;24.25;15.60;99.90;;;;;;5003565;28;11468;-57
2022/01/13 00:52:49;;;;;;;;;28.75;28.75;15.60;99.90;;;;;;5011563;28;11458;-58
2022/01/13 00:55:22;;;;;;;;;22.75;22.75;15.60;99.90;;;;;;5011617;28;11464;-57
2022/01/13 00:57:53;;;;;;;;;25.00;25.00;15.60;99.90;;;;;;5000105;28;11537;-56
2022/01/13 01:00:25;;;;;;;;;24.50;24.50;15.60;99.90;;;;;;5013617;28;11553;-59
2022/01/13 01:02:55;;;;;;;;;25.00;25.00;15.60;99.90;;;;;;4984274;28;11510;-58
2022/01/13 01:05:27;;;;;;;;;24.25;24.25;15.60;99.90;;;;;;4999445;28;11532;-58
2022/01/13 01:07:59;;;;;;;;;24.75;24.75;15.60;99.90;;;;;;5013481;28;11535;-58
2022/01/13 01:10:30;;;;;;;;;18.50;18.50;15.60;99.90;;;;;;5013669;28;11653;-58
2022/01/13 01:13:13;;;;;;;;;19.75;19.75;15.50;99.90;;;;;;4998073;28;11494;-57
2022/01/13 01:15:48;;;;;;;;;23.50;23.50;15.50;99.90;;;;;;5014599;28;12109;-58
2022/01/13 01:29:25;;;;;;;;;25.75;25.75;15.40;99.90;;;;;;5017943;28;11455;-57
2022/01/13 01:31:58;;;;;;;;;22.25;22.25;15.40;99.90;;;;;;5011257;28;11421;-58
2022/01/13 01:37:14;;;;;;;;;24.25;23.50;15.40;99.90;;;;;;5015911;28;11483;-57
2022/01/13 01:39:51;;;;;;;;;21.50;21.50;15.40;99.90;;;;;;4981609;28;12190;-58
2022/01/13 01:42:24;;;;;;;;;25.00;25.00;15.40;99.90;;;;;;5009628;28;11678;-56
2022/01/13 01:44:58;;;;;;;;;26.75;26.75;15.30;99.90;;;;;;5017450;28;11662;-58
2022/01/13 01:47:33;;;;;;;;;23.00;23.00;15.30;99.90;;;;;;5012137;28;12232;-59
2022/01/13 01:50:16;;;;;;;;;24.50;24.50;15.30;99.90;;;;;;5012418;28;11538;-59
2022/01/13 01:52:52;;;;;;;;;26.50;26.50;15.30;99.90;;;;;;5013625;28;11538;-58
2022/01/13 01:55:23;;;;;;;;;33.00;32.00;15.30;99.90;;;;;;5011064;28;11628;-58
2022/01/13 01:57:58;;;;;;;;;25.00;25.00;15.30;99.90;;;;;;4984321;28;11731;-58
2022/01/13 02:00:29;;;;;;;;;31.50;30.75;15.30;99.90;;;;;;4997957;28;11530;-57
2022/01/13 02:03:01;;;;;;;;;37.25;32.75;15.30;99.90;;;;;;5014401;28;12876;-59
2022/01/13 02:05:33;;;;;;;;;37.50;34.00;15.30;99.90;;;;;;5009425;28;11515;-58
2022/01/13 02:08:05;;;;;;;;;37.75;33.75;15.30;99.90;;;;;;5017254;28;11531;-58
2022/01/13 02:10:37;;;;;;;;;39.00;34.75;15.30;99.90;;;;;;4996715;28;11598;-58
2022/01/13 02:13:12;;;;;;;;;37.00;34.00;15.20;99.90;;;;;;5015120;28;11595;-59
2022/01/13 02:16:02;;;;;;;;;31.00;30.50;15.20;99.90;;;;;;5010901;28;11529;-60
2022/01/13 02:18:34;;;;;;;;;46.25;39.50;15.20;99.90;;;;;;5014115;28;11589;-57
2022/01/13 02:21:05;;;;;;;;;54.50;45.50;15.20;99.90;;;;;;5013694;28;12924;-57
2022/01/13 02:23:37;;;;;;;;;48.00;42.00;15.20;99.90;;;;;;4991888;28;11823;-58
2022/01/13 02:26:12;;;;;;;;;43.75;38.50;15.20;99.90;;;;;;5014191;28;11522;-57
2022/01/13 02:28:44;;;;;;;;;45.00;39.25;15.10;99.90;;;;;;5006253;28;11575;-59
2022/01/13 02:31:16;;;;;;;;;42.00;37.00;15.10;99.90;;;;;;5014584;28;11593;-59
2022/01/13 02:33:47;;;;;;;;;40.75;36.75;15.20;99.90;;;;;;5013311;28;12266;-58
2022/01/13 02:36:20;;;;;;;;;46.00;40.00;15.10;99.90;;;;;;5015828;28;11538;-58
2022/01/13 02:38:54;;;;;;;;;49.50;42.25;15.10;99.90;;;;;;5011393;28;11611;-57
2022/01/13 02:41:25;;;;;;;;;42.75;37.75;15.10;99.90;;;;;;5013850;28;11565;-58
2022/01/13 02:44:00;;;;;;;;;52.00;43.75;15.10;99.90;;;;;;5010285;28;11593;-58
2022/01/13 02:49:09;;;;;;;;;48.25;41.00;15.00;99.90;;;;;;5014619;28;11580;-58
2022/01/13 02:51:43;;;;;;;;;48.00;41.00;15.00;99.90;;;;;;5018169;28;11619;-59
2022/01/13 02:54:15;;;;;;;;;46.25;40.50;15.00;99.90;;;;;;5018167;28;11584;-58
2022/01/13 02:56:47;;;;;;;;;40.75;36.50;15.00;99.90;;;;;;5018762;28;11498;-58
2022/01/13 02:59:19;;;;;;;;;50.25;43.00;15.00;99.90;;;;;;5015950;28;12296;-58
2022/01/13 03:01:50;;;;;;;;;49.25;42.50;14.90;99.90;;;;;;5017369;28;11588;-59
2022/01/13 03:04:22;;;;;;;;;49.75;42.75;14.90;99.90;;;;;;5001431;28;11580;-57
2022/01/13 03:06:52;;;;;;;;;46.75;40.50;14.90;99.90;;;;;;5018010;28;11529;-59
2022/01/13 03:09:24;;;;;;;;;45.50;39.25;14.80;99.90;;;;;;4999921;28;11634;-58
2022/01/13 03:11:55;;;;;;;;;50.50;41.75;14.90;99.90;;;;;;5016208;28;11588;-57
2022/01/13 03:14:26;;;;;;;;;47.00;39.25;14.80;99.90;;;;;;5017362;28;11583;-59
2022/01/13 03:16:57;;;;;;;;;45.50;39.50;14.80;99.90;;;;;;4998780;28;11556;-56
2022/01/13 03:19:28;;;;;;;;;47.50;40.50;14.80;99.90;;;;;;5016718;28;11512;-58
2022/01/13 03:21:59;;;;;;;;;49.00;41.00;14.80;99.90;;;;;;4997579;28;11595;-59
2022/01/13 03:24:31;;;;;;;;;49.00;41.75;14.80;99.90;;;;;;5017497;28;11584;-57
2022/01/13 03:27:07;;;;;;;;;45.25;38.25;14.70;99.90;;;;;;5016124;28;11610;-59
2022/01/13 03:29:40;;;;;;;;;45.75;39.25;14.70;99.90;;;;;;4999820;28;11612;-58
2022/01/13 03:32:15;;;;;;;;;44.50;38.25;14.70;99.90;;;;;;5016826;28;11616;-57
2022/01/13 03:34:45;;;;;;;;;49.50;42.25;14.70;99.90;;;;;;5016731;28;12264;-58
2022/01/13 03:37:16;;;;;;;;;47.00;39.50;14.60;99.90;;;;;;5016227;28;11541;-58
2022/01/13 03:39:46;;;;;;;;;42.75;37.75;14.70;99.90;;;;;;5015809;28;11592;-58
2022/01/13 03:42:18;;;;;;;;;46.00;39.75;14.60;99.90;;;;;;5017034;28;11709;-57
2022/01/13 03:44:48;;;;;;;;;47.00;40.25;14.60;99.90;;;;;;5002769;28;11512;-58
2022/01/13 03:47:18;;;;;;;;;49.00;42.25;14.60;99.90;;;;;;5015297;28;11517;-57
2022/01/13 03:49:50;;;;;;;;;50.00;42.00;14.50;99.90;;;;;;5013674;28;11563;-59
2022/01/13 03:52:24;;;;;;;;;44.00;37.25;14.50;99.90;;;;;;5013619;28;11693;-57
2022/01/13 03:55:18;;;;;;;;;42.50;36.50;14.50;99.90;;;;;;5017566;28;11617;-58
2022/01/13 03:58:25;;;;;;;;;46.25;40.50;14.50;99.90;;;;;;5014746;28;11646;-57
2022/01/13 04:01:32;;;;;;;;;45.25;39.25;14.50;99.90;;;;;;5014289;28;11658;-57
2022/01/13 04:04:03;;;;;;;;;45.50;38.50;14.40;99.90;;;;;;5014238;28;11587;-57
2022/01/13 04:06:39;;;;;;;;;52.00;44.75;14.40;99.90;;;;;;5015542;28;11546;-57
2022/01/13 04:09:33;;;;;;;;;48.75;41.75;14.40;99.90;;;;;;5014891;28;12288;-57
2022/01/13 04:12:08;;;;;;;;;41.00;36.50;14.20;99.90;;;;;;4978943;28;11614;-58
2022/01/13 04:14:59;;;;;;;;;49.00;42.50;14.40;99.90;;;;;;5017946;28;11582;-58
2022/01/13 04:17:30;;;;;;;;;47.75;41.25;14.40;99.90;;;;;;5015299;28;11727;-58
2022/01/13 04:20:01;;;;;;;;;50.00;42.25;14.30;99.90;;;;;;5001147;28;12283;-58
2022/01/13 04:22:32;;;;;;;;;51.50;44.25;14.30;99.90;;;;;;5016458;28;12298;-57
2022/01/13 04:25:06;;;;;;;;;52.00;44.75;14.30;99.90;;;;;;5017173;28;12322;-58
2022/01/13 04:27:41;;;;;;;;;51.25;44.25;14.20;99.90;;;;;;5014733;28;11549;-57
2022/01/13 04:32:45;;;;;;;;;49.25;42.75;14.30;99.90;;;;;;5015161;28;11573;-58
2022/01/13 04:35:15;;;;;;;;;51.75;44.75;14.30;99.90;;;;;;5018802;28;11448;-57
2022/01/13 04:37:46;;;;;;;;;51.00;43.00;14.30;99.90;;;;;;5016059;28;11593;-58
2022/01/13 04:40:17;;;;;;;;;54.50;45.50;14.20;99.90;;;;;;5016054;28;11594;-59
2022/01/13 04:42:53;;;;;;;;;51.75;44.25;14.20;99.90;;;;;;5014021;28;11628;-56
2022/01/13 04:45:25;;;;;;;;;50.75;43.75;14.20;99.90;;;;;;5017046;28;11553;-57
2022/01/13 04:47:57;;;;;;;;;53.00;44.00;14.20;99.90;;;;;;5012976;28;11712;-57
2022/01/13 04:50:29;;;;;;;;;51.00;42.75;14.20;99.90;;;;;;5015678;28;11690;-58
2022/01/13 04:52:59;;;;;;;;;48.00;41.50;14.20;99.90;;;;;;4981246;28;12301;-58
2022/01/13 04:55:33;;;;;;;;;15.75;15.75;14.10;99.90;;;;;;5010520;28;11549;-57
2022/01/13 04:58:05;;;;;;;;;53.50;45.75;14.10;99.90;;;;;;5000246;28;11587;-58
2022/01/13 05:00:35;;;;;;;;;50.25;42.25;14.00;99.90;;;;;;5012462;28;11539;-58
2022/01/13 05:03:09;;;;;;;;;51.75;44.50;14.00;99.90;;;;;;4992884;28;11634;-58
2022/01/13 05:05:41;;;;;;;;;52.75;45.50;14.00;99.90;;;;;;4982830;28;11563;-58
2022/01/13 05:08:16;;;;;;;;;54.33;46.00;14.00;99.90;;;;;;5001408;28;11695;-58
2022/01/13 05:10:46;;;;;;;;;54.25;45.25;14.00;99.90;;;;;;4995633;28;11685;-58
2022/01/13 05:13:17;;;;;;;;;57.00;46.75;13.90;99.90;;;;;;4995982;28;11556;-57
2022/01/13 05:15:49;;;;;;;;;55.67;46.67;13.90;99.90;;;;;;5016255;28;11540;-57
2022/01/13 05:21:27;;;;;;;;;56.00;46.25;13.90;99.90;;;;;;5003082;28;11590;-56
2022/01/13 05:23:59;;;;;;;;;54.25;45.75;13.90;99.90;;;;;;5011622;28;11587;-56
2022/01/13 05:26:30;;;;;;;;;52.75;44.25;13.90;99.90;;;;;;5011932;28;11614;-57
2022/01/13 05:29:02;;;;;;;;;51.75;43.50;13.90;99.90;;;;;;5005456;28;11640;-57
2022/01/13 05:31:33;;;;;;;;;52.00;44.25;13.90;99.90;;;;;;4993372;28;11603;-57
2022/01/13 05:34:04;;;;;;;;;54.00;45.50;13.80;99.90;;;;;;4996343;28;11696;-57
2022/01/13 05:36:34;;;;;;;;;53.00;45.25;13.80;99.90;;;;;;4995867;28;11576;-56
2022/01/13 05:39:05;;;;;;;;;54.67;46.00;13.70;99.90;;;;;;5011908;28;11539;-57
2022/01/13 05:41:35;;;;;;;;;55.00;46.75;13.70;99.90;;;;;;5009197;28;12226;-57
2022/01/13 05:44:06;;;;;;;;;49.50;42.50;13.70;99.90;;;;;;5015399;28;11566;-58
2022/01/13 05:46:36;;;;;;;;;56.00;47.25;13.70;99.90;;;;;;5011571;28;12277;-57
2022/01/13 05:49:08;;;;;;;;;55.50;46.00;13.60;99.90;;;;;;5009005;28;11627;-57
2022/01/13 05:51:40;;;;;;;;;53.50;43.50;13.70;99.90;;;;;;5005149;28;11569;-57
2022/01/13 05:54:10;;;;;;;;;51.00;43.75;13.70;99.90;;;;;;5014641;28;11596;-58
2022/01/13 05:56:40;;;;;;;;;52.00;44.75;13.70;99.90;;;;;;4979221;28;11589;-57
2022/01/13 05:59:16;;;;;;;;;47.75;41.25;13.60;99.90;;;;;;4979374;28;11614;-58
2022/01/13 06:01:47;;;;;;;;;51.50;43.75;13.60;99.90;;;;;;4995058;28;11647;-58
2022/01/13 06:04:18;;;;;;;;;51.00;43.00;13.60;99.90;;;;;;4996907;28;11562;-57
2022/01/13 06:06:48;;;;;;;;;54.00;46.00;13.60;99.90;;;;;;4998207;28;11555;-58
2022/01/13 06:09:19;;;;;;;;;48.75;40.50;13.50;99.90;;;;;;5014008;28;11624;-57
2022/01/13 06:12:00;;;;;;;;;49.50;42.25;13.50;99.90;;;;;;5012100;28;11571;-59
2022/01/13 06:14:33;;;;;;;;;55.00;46.00;13.60;99.90;;;;;;5014338;28;11504;-58
2022/01/13 06:17:04;;;;;;;;;52.00;44.00;13.60;99.90;;;;;;5013160;28;11589;-58
2022/01/13 06:19:34;;;;;;;;;47.50;41.00;13.50;99.90;;;;;;4996976;28;11609;-56
2022/01/13 06:22:05;;;;;;;;;55.00;46.67;13.50;99.90;;;;;;5009226;28;11577;-58
2022/01/13 06:24:36;;;;;;;;;55.50;46.75;13.50;99.90;;;;;;5014571;28;11720;-57
2022/01/13 06:27:08;;;;;;;;;51.75;44.25;13.50;99.90;;;;;;4994735;28;11553;-59
2022/01/13 06:29:39;;;;;;;;;54.75;46.00;13.50;99.90;;;;;;4999347;28;11555;-59
2022/01/13 06:32:12;;;;;;;;;49.75;42.25;13.50;99.90;;;;;;4980107;28;11608;-61
2022/01/13 06:34:42;;;;;;;;;51.00;43.75;13.50;99.90;;;;;;5003425;28;11538;-55
2022/01/13 06:37:15;;;;;;;;;48.00;40.50;13.50;99.90;;;;;;5000294;28;11707;-57
2022/01/13 06:39:46;;;;;;;;;48.00;41.00;13.50;99.90;;;;;;5015443;28;11532;-59
2022/01/13 06:42:18;;;;;;;;;43.75;38.50;13.50;99.90;;;;;;4998389;28;12379;-56
2022/01/13 06:44:49;;;;;;;;;48.00;41.00;13.40;99.90;;;;;;4987257;28;11552;-55
2022/01/13 06:47:19;;;;;;;;;49.25;42.00;13.40;99.90;;;;;;4994915;28;11511;-54
2022/01/13 06:49:50;;;;;;;;;50.25;41.75;13.40;99.90;;;;;;5017125;28;11576;-57
2022/01/13 06:52:20;;;;;;;;;49.75;42.00;13.40;99.90;;;;;;5013672;28;11807;-58
2022/01/13 06:54:52;;;;;;;;;50.00;43.00;13.30;99.90;;;;;;5014846;28;11563;-53
2022/01/13 06:57:23;;;;;;;;;45.75;40.00;13.30;99.90;;;;;;5011783;28;11509;-55
2022/01/13 06:59:53;;;;;;;;;48.25;41.25;13.30;99.90;;;;;;5017411;28;11528;-54
2022/01/13 07:02:26;;;;;;;;;47.50;40.75;13.30;99.90;;;;;;5011856;28;11668;-56
2022/01/13 07:04:57;;;;;;;;;44.50;38.50;13.30;99.90;;;;;;5018245;28;12280;-54
2022/01/13 07:07:39;;;;;;;;;43.25;38.50;13.30;99.90;;;;;;4994810;28;11647;-54
2022/01/13 07:10:16;;;;;;;;;48.50;41.00;13.30;99.90;;;;;;5015013;28;12111;-53
2022/01/13 07:12:48;;;;;;;;;47.50;40.25;13.30;99.90;;;;;;5013905;28;11578;-54
2022/01/13 07:15:22;;;;;;;;;40.00;36.75;13.30;99.90;;;;;;5017153;28;11588;-54
2022/01/13 07:17:56;;;;;;;;;43.50;38.50;13.30;99.90;;;;;;4995221;28;11707;-52
2022/01/13 07:20:27;;;;;;;;;37.00;33.75;13.30;99.90;;;;;;5011344;28;11696;-54
2022/01/13 07:23:00;;;;;;;;;47.25;40.75;13.30;99.90;;;;;;5015165;28;11608;-54
2022/01/13 07:25:31;;;;;;;;;46.00;38.75;13.30;99.90;;;;;;5018342;28;12962;-55
2022/01/13 07:28:05;;;;;;;;;47.00;39.25;13.30;99.90;;;;;;5010421;28;11605;-51
2022/01/13 07:30:39;;;;;;;;;46.25;40.00;13.30;99.90;;;;;;5012733;28;11647;-53
2022/01/13 07:33:13;;;;;;;;;50.50;43.25;13.30;99.90;;;;;;4994146;28;12807;-59
2022/01/13 07:35:43;;;;;;;;;48.00;41.00;13.30;99.90;;;;;;5013157;28;11604;-55
2022/01/13 07:38:13;;;;;;;;;51.25;43.25;13.30;99.90;;;;;;4999373;28;11539;-52
2022/01/13 07:40:46;;;;;;;;;50.00;43.00;13.30;99.90;;;;;;5013551;28;11956;-52
2022/01/13 07:43:22;;;;;;;;;52.75;45.50;13.30;99.90;;;;;;5015577;28;11555;-53
2022/01/13 07:45:54;;;;;;;;;52.67;45.33;13.20;99.90;;;;;;5014895;28;11539;-57
2022/01/13 07:48:26;;;;;;;;;50.25;43.00;13.20;99.90;;;;;;5014430;28;11552;-52
2022/01/13 07:50:57;;;;;;;;;53.33;45.67;13.10;99.90;;;;;;5014653;28;11550;-56
2022/01/13 07:53:28;;;;;;;;;50.00;42.75;13.10;99.90;;;;;;5016501;28;12296;-55
2022/01/13 07:55:59;;;;;;;;;50.50;43.50;13.10;99.90;;;;;;5011641;28;11528;-55
2022/01/13 07:58:29;;;;;;;;;54.50;45.25;13.20;99.90;;;;;;5015341;28;11574;-54
2022/01/13 08:01:00;;;;;;;;;53.00;45.00;13.10;99.90;;;;;;4992639;28;11616;-57
2022/01/13 08:03:31;;;;;;;;;51.00;43.33;13.10;99.90;;;;;;5011094;28;11562;-57
2022/01/13 08:06:04;;;;;;;;;55.33;47.33;13.10;99.90;;;;;;5011663;28;11573;-57
2022/01/13 08:08:35;;;;;;;;;51.00;44.33;13.10;99.90;;;;;;5016100;28;11566;-57
2022/01/13 08:11:07;;;;;;;;;54.25;46.25;13.10;99.90;;;;;;4996175;28;8866;-57
2022/01/13 08:13:38;;;;;;;;;58.00;47.33;13.10;99.90;;;;;;5018068;28;11577;-58
2022/01/13 08:16:10;;;;;;;;;55.33;47.00;13.00;99.90;;;;;;5014618;28;8881;-57
2022/01/13 08:21:31;;;;;;;;;57.67;48.00;12.90;99.90;;;;;;5013516;28;8850;-57
2022/01/13 08:24:05;;;;;;;;;57.00;47.33;13.00;99.90;;;;;;5012315;28;11630;-57
2022/01/13 08:26:35;;;;;;;;;55.00;47.00;12.90;99.90;;;;;;4978694;28;8842;-59
2022/01/13 08:29:06;;;;;;;;;60.00;49.00;12.90;99.90;;;;;;4996184;28;9550;-56
2022/01/13 08:31:39;;;;;;;;;59.67;49.00;12.80;99.90;;;;;;5009676;28;8811;-58
2022/01/13 08:34:16;;;;;;;;;56.33;48.00;12.90;99.90;;;;;;5016259;28;8841;-57
2022/01/13 08:36:47;;;;;;;;;57.33;48.00;12.90;99.90;;;;;;5012281;28;8838;-58
2022/01/13 08:39:18;;;;;;;;;57.00;47.33;12.90;99.90;;;;;;5015182;28;8814;-57
2022/01/13 08:41:51;;;;;;;;;57.00;48.00;12.80;99.90;;;;;;5010436;28;9577;-56
2022/01/13 08:44:22;;;;;;;;;56.67;47.67;12.80;99.90;;;;;;4998924;28;8866;-57
2022/01/13 08:46:52;;;;;;;;;56.33;46.33;12.80;99.90;;;;;;4997502;28;8854;-56
2022/01/13 08:49:23;;;;;;;;;57.67;47.33;12.80;99.90;;;;;;5008859;28;8949;-56
2022/01/13 08:51:55;;;;;;;;;54.00;46.33;12.70;99.90;;;;;;5016034;28;8887;-56
2022/01/13 08:54:28;;;;;;;;;52.67;45.00;12.70;99.90;;;;;;5014417;28;8896;-54
2022/01/13 08:57:00;;;;;;;;;55.00;46.75;12.70;99.90;;;;;;4993121;28;9201;-57
2022/01/13 08:59:31;;;;;;;;;50.25;43.25;12.80;99.90;;;;;;5012271;28;12027;-56
2022/01/13 09:02:02;;;;;;;;;50.25;42.75;12.70;99.90;;;;;;4993908;28;11553;-53
2022/01/13 09:04:34;;;;;;;;;48.50;42.00;12.80;99.90;;;;;;4999152;28;11553;-56
2022/01/13 09:07:05;;;;;;;;;50.67;43.33;12.80;99.90;;;;;;4996726;28;11695;-58
2022/01/13 09:09:44;;;;;;;;;51.33;44.00;12.70;99.90;;;;;;5010843;28;11556;-56
2022/01/13 09:12:15;;;;;;;;;47.00;41.00;12.70;99.90;;;;;;5011676;28;12267;-56
2022/01/13 09:14:47;;;;;;;;;49.00;42.75;12.70;99.90;;;;;;5011921;28;11565;-58
2022/01/13 09:17:23;;;;;;;;;51.75;44.50;12.60;99.90;;;;;;5015677;28;11545;-57
2022/01/13 09:19:53;;;;;;;;;48.75;42.50;12.60;99.90;;;;;;5012677;28;11670;-56
2022/01/13 09:22:23;;;;;;;;;48.00;42.00;12.60;99.90;;;;;;4998219;28;11679;-55
2022/01/13 09:24:53;;;;;;;;;43.25;38.00;12.60;99.90;;;;;;5011467;28;11661;-56
2022/01/13 09:27:25;;;;;;;;;46.50;40.50;12.60;99.90;;;;;;4982352;28;11601;-57
2022/01/13 09:29:56;;;;;;;;;44.25;39.25;12.60;99.90;;;;;;5013780;28;11687;-58
2022/01/13 09:32:27;;;;;;;;;35.00;33.75;12.60;99.90;;;;;;4997181;28;11642;-57
2022/01/13 09:34:57;;;;;;;;;39.25;35.75;12.60;99.90;;;;;;5012322;28;11540;-56
2022/01/13 09:37:28;;;;;;;;;42.75;38.25;12.70;99.90;;;;;;4996567;28;11586;-57
2022/01/13 09:40:00;;;;;;;;;46.50;40.75;12.60;99.90;;;;;;5008139;28;11550;-57
2022/01/13 09:42:35;;;;;;;;;43.75;38.25;12.50;99.90;;;;;;5013906;28;11568;-56
2022/01/13 09:45:12;;;;;;;;;41.75;37.00;12.50;99.90;;;;;;5011278;28;11567;-58
2022/01/13 09:47:45;;;;;;;;;34.50;33.25;12.50;99.90;;;;;;5012406;28;11538;-56
2022/01/13 09:50:19;;;;;;;;;41.00;37.00;12.50;99.90;;;;;;5013587;28;11698;-57
2022/01/13 09:52:50;;;;;;;;;43.50;38.00;12.50;99.90;;;;;;5014840;28;11742;-55
2022/01/13 09:55:22;;;;;;;;;43.25;38.75;12.50;99.90;;;;;;4994347;28;11604;-56
2022/01/13 09:57:55;;;;;;;;;37.75;35.00;12.50;99.90;;;;;;5011812;28;11587;-56
2022/01/13 10:00:26;;;;;;;;;40.50;36.75;12.50;99.90;;;;;;4992161;28;11578;-58
2022/01/13 10:02:57;;;;;;;;;44.00;38.00;12.40;99.90;;;;;;5011115;28;11560;-56
2022/01/13 10:05:33;;;;;;;;;47.25;41.25;12.40;99.90;;;;;;4979966;28;11566;-56
2022/01/13 10:08:05;;;;;;;;;43.25;38.75;12.40;99.90;;;;;;5009747;28;11559;-56
2022/01/13 10:10:35;;;;;;;;;39.25;35.75;12.40;99.90;;;;;;4993515;28;11622;-56
2022/01/13 10:13:11;;;;;;;;;40.50;37.25;12.40;99.90;;;;;;4976188;28;11906;-57
2022/01/13 10:18:40;;;;;;;;;43.00;38.50;12.50;99.90;;;;;;5014516;28;11672;-57
2022/01/13 10:21:15;;;;;;;;;43.25;37.75;12.40;99.90;;;;;;5007448;28;11588;-57
2022/01/13 10:24:13;;;;;;;;;44.00;38.50;12.40;99.90;;;;;;4994101;28;11662;-56
2022/01/13 10:27:00;;;;;;;;;47.33;41.00;12.40;99.90;;;;;;5006664;28;11546;-57
2022/01/13 10:29:50;;;;;;;;;43.50;38.75;12.30;99.90;;;;;;5012209;28;11553;-56
2022/01/13 10:32:32;;;;;;;;;44.00;39.00;12.30;99.90;;;;;;5007007;28;11605;-57
2022/01/13 10:35:04;;;;;;;;;43.50;38.25;12.30;99.90;;;;;;4998957;28;11580;-56
2022/01/13 10:37:38;;;;;;;;;41.25;36.00;12.20;99.90;;;;;;5009964;28;11539;-56
2022/01/13 10:40:34;;;;;;;;;48.25;40.50;12.20;99.90;;;;;;5011504;28;11586;-57
2022/01/13 10:43:06;;;;;;;;;47.50;41.00;12.20;99.90;;;;;;5008450;28;11546;-56
2022/01/13 10:46:05;;;;;;;;;38.75;35.50;12.10;99.90;;;;;;5013012;28;11543;-55
2022/01/13 10:48:37;;;;;;;;;42.00;38.25;12.20;99.90;;;;;;5009146;28;11554;-55
2022/01/13 10:51:11;;;;;;;;;39.00;36.00;12.20;99.90;;;;;;4982510;28;11628;-53
2022/01/13 10:53:46;;;;;;;;;46.00;40.50;12.20;99.90;;;;;;4998020;28;12275;-56
2022/01/13 10:56:20;;;;;;;;;42.00;38.25;12.20;99.90;;;;;;5009682;28;11677;-57
2022/01/13 10:58:54;;;;;;;;;46.25;40.25;12.10;99.90;;;;;;5012363;28;11585;-57
2022/01/13 11:01:34;;;;;;;;;41.33;38.00;12.00;99.90;;;;;;5014747;28;11531;-54
2022/01/13 11:04:17;;;;;;;;;44.50;38.75;12.10;99.90;;;;;;4993653;28;12278;-56
2022/01/13 11:06:47;;;;;;;;;46.00;39.67;12.00;99.90;;;;;;5013110;28;11549;-57
2022/01/13 11:09:19;;;;;;;;;46.75;39.50;12.00;99.90;;;;;;4981971;28;12172;-57
2022/01/13 11:11:58;;;;;;;;;45.00;40.00;12.00;99.90;;;;;;5015395;28;11604;-57
2022/01/13 11:14:31;;;;;;;;;44.75;39.25;12.00;99.90;;;;;;5013913;28;11652;-55
2022/01/13 11:17:01;;;;;;;;;41.50;37.00;11.90;99.90;;;;;;5017113;28;11573;-57
2022/01/13 11:19:35;;;;;;;;;41.67;38.00;12.00;99.90;;;;;;5019115;28;11587;-55
2022/01/13 11:22:06;;;;;;;;;44.00;39.00;12.00;99.90;;;;;;4995201;28;9872;-57
2022/01/13 11:24:37;;;;;;;;;39.33;35.33;12.00;99.90;;;;;;5014761;28;8890;-57
2022/01/13 11:27:09;;;;;;;;;37.25;35.25;12.00;99.90;;;;;;4994530;28;9589;-58
2022/01/13 11:29:42;;;;;;;;;44.67;38.00;12.00;99.90;;;;;;5015144;28;8902;-57
2022/01/13 11:32:15;;;;;;;;;36.00;35.00;12.00;99.90;;;;;;5014312;28;8866;-55
2022/01/13 11:34:47;;;;;;;;;33.33;33.00;11.90;99.90;;;;;;4998495;28;11528;-58
2022/01/13 11:37:18;;;;;;;;;45.33;38.33;11.90;99.90;;;;;;5016340;28;11528;-56
2022/01/13 11:39:50;;;;;;;;;32.67;32.67;11.90;99.90;;;;;;5014084;28;9476;-56
2022/01/13 11:42:21;;;;;;;;;43.33;38.33;11.90;99.90;;;;;;5013636;28;8838;-58
2022/01/13 11:45:16;;;;;;;;;15.33;15.33;11.90;99.90;;;;;;5010016;28;8893;-57
2022/01/13 11:47:52;;;;;;;;;42.33;37.67;11.80;99.90;;;;;;5014048;28;8900;-57
2022/01/13 11:50:31;;;;;;;;;39.00;36.00;11.80;99.90;;;;;;5015247;28;8882;-57
2022/01/13 11:53:18;;;;;;;;;45.67;39.67;11.80;99.90;;;;;;4998848;28;8850;-57
2022/01/13 11:55:54;;;;;;;;;43.00;38.67;11.70;99.90;;;;;;5014138;28;8908;-57
2022/01/13 11:58:47;;;;;;;;;45.00;39.33;11.70;99.90;;;;;;5014207;28;9266;-57
2022/01/13 12:01:24;;;;;;;;;45.00;38.00;11.70;99.90;;;;;;5014780;28;8818;-55
2022/01/13 12:04:01;;;;;;;;;41.00;37.67;11.70;99.90;;;;;;5017327;28;8853;-57
2022/01/13 12:06:45;;;;;;;;;40.00;36.33;11.70;99.90;;;;;;4993410;28;8842;-55
2022/01/13 12:09:22;;;;;;;;;44.33;38.33;11.70;99.90;;;;;;5012552;28;8860;-56
2022/01/13 12:11:55;;;;;;;;;41.00;37.67;11.70;99.90;;;;;;4994051;28;8873;-57
2022/01/13 12:14:28;;;;;;;;;35.33;34.33;11.80;99.90;;;;;;5011261;28;8892;-57
2022/01/13 12:17:08;;;;;;;;;45.00;39.67;11.70;99.90;;;;;;5013375;28;9502;-57
2022/01/13 12:19:47;;;;;;;;;45.33;39.67;11.80;99.90;;;;;;5015498;28;9597;-58
2022/01/13 12:22:27;;;;;;;;;50.00;42.00;11.70;99.90;;;;;;5011699;28;8848;-57
2022/01/13 12:25:04;;;;;;;;;44.33;39.33;11.70;99.90;;;;;;5009366;28;8881;-56
2022/01/13 12:27:44;;;;;;;;;42.00;38.00;11.70;99.90;;;;;;5014392;28;8837;-55
2022/01/13 12:30:34;;;;;;;;;40.33;37.00;11.70;99.90;;;;;;5012985;28;9773;-57
2022/01/13 12:33:10;;;;;;;;;46.67;40.00;11.60;99.90;;;;;;4989040;28;8852;-57
2022/01/13 12:35:48;;;;;;;;;45.33;38.00;11.60;99.90;;;;;;5012016;28;8853;-55
2022/01/13 12:38:22;;;;;;;;;42.33;37.67;11.60;99.90;;;;;;5012637;28;8826;-56
2022/01/13 12:41:14;;;;;;;;;49.67;41.33;11.60;99.90;;;;;;5014514;28;8862;-56
2022/01/13 12:46:22;;;;;;;;;44.33;39.67;11.70;99.90;;;;;;4994838;28;8838;-56
2022/01/13 12:48:54;;;;;;;;;47.00;40.33;11.60;99.90;;;;;;5013814;28;8953;-57
2022/01/13 12:51:27;;;;;;;;;45.33;39.67;11.60;99.90;;;;;;4999294;28;8884;-57
2022/01/13 12:53:58;;;;;;;;;45.33;39.67;11.50;99.90;;;;;;4980219;28;8856;-57
2022/01/13 12:56:30;;;;;;;;;51.00;43.67;11.50;99.90;;;;;;4989836;28;8867;-57
2022/01/13 12:59:06;;;;;;;;;43.33;38.33;11.50;99.90;;;;;;5017915;28;8852;-57
2022/01/13 13:01:38;;;;;;;;;44.33;38.00;11.50;99.90;;;;;;4993785;28;8842;-56
2022/01/13 13:04:12;;;;;;;;;42.00;36.33;11.50;99.90;;;;;;4981316;28;8842;-56
2022/01/13 13:06:48;;;;;;;;;40.33;37.00;11.50;99.90;;;;;;5009877;28;8825;-55
2022/01/13 13:09:26;;;;;;;;;45.00;39.00;11.50;99.90;;;;;;5009547;28;8842;-56
2022/01/13 13:12:03;;;;;;;;;50.00;43.33;11.50;99.90;;;;;;5013373;28;8826;-57
2022/01/13 13:17:28;;;;;;;;;55.00;46.67;11.40;99.90;;;;;;4997645;28;8877;-57
2022/01/13 13:19:58;;;;;;;;;53.67;45.67;11.50;99.90;;;;;;5016503;28;8854;-57
2022/01/13 13:22:29;;;;;;;;;50.33;43.33;11.40;99.90;;;;;;5011640;28;8842;-57
2022/01/13 13:25:00;;;;;;;;;51.33;44.00;11.40;99.90;;;;;;4998083;28;8866;-58
2022/01/13 13:27:32;;;;;;;;;54.00;46.00;11.40;99.90;;;;;;5011423;28;8957;-57
2022/01/13 13:30:03;;;;;;;;;49.00;41.67;11.50;99.90;;;;;;5014843;28;8872;-57
2022/01/13 13:32:33;;;;;;;;;54.00;46.00;11.50;99.90;;;;;;5006164;28;8920;-58
2022/01/13 13:35:13;;;;;;;;;54.00;45.00;11.50;99.90;;;;;;5010619;28;8844;-57
2022/01/13 13:37:47;;;;;;;;;53.67;45.67;11.40;99.90;;;;;;5011760;28;10209;-57
2022/01/13 13:40:24;;;;;;;;;54.00;45.00;11.40;99.90;;;;;;4978119;28;8883;-56
2022/01/13 13:43:09;;;;;;;;;52.67;45.00;11.40;99.90;;;;;;4975907;28;8838;-57